sensor_id;sensor_type;location;lat;lon;timestamp;pressure;altitude;pressure_sealevel;temperature;humidity
78411;BME280;67706;51.074;-1.796;2024-01-25T00:00:39;102490.47;;;6.30;100.00
78411;BME280;67706;51.074;-1.796;2024-01-25T00:03:06;102494.66;;;6.34;100.00
78411;BME280;67706;51.074;-1.796;2024-01-25T00:05:33;102484.63;;;6.34;100.00
78411;BME280;67706;51.074;-1.796;2024-01-25T00:07:59;102495.63;;;6.33;100.00
78411;BME280;67706;51.074;-1.796;2024-01-25T00:10:26;102497.72;;;6.40;100.00
78411;BME280;67706;51.074;-1.796;2024-01-25T00:12:54;102501.72;;;6.36;100.00
78411;BME280;67706;51.074;-1.796;2024-01-25T00:15:21;102501.19;;;6.43;100.00
78411;BME280;67706;51.074;-1.796;2024-01-25T00:17:47;102503.09;;;6.52;100.00
78411;BME280;67706;51.074;-1.796;2024-01-25T00:20:15;102503.97;;;6.52;100.00
78411;BME280;67706;51.074;-1.796;2024-01-25T00:22:41;102501.06;;;6.65;100.00
78411;BME280;67706;51.074;-1.796;2024-01-25T00:25:08;102506.13;;;6.69;100.00
78411;BME280;67706;51.074;-1.796;2024-01-25T00:27:35;102503.16;;;6.72;100.00
78411;BME280;67706;51.074;-1.796;2024-01-25T00:30:03;102500.28;;;6.74;100.00
78411;BME280;67706;51.074;-1.796;2024-01-25T00:32:30;102495.69;;;6.74;100.00
78411;BME280;67706;51.074;-1.796;2024-01-25T00:34:57;102495.28;;;6.79;100.00
78411;BME280;67706;51.074;-1.796;2024-01-25T00:37:24;102491.44;;;6.81;100.00
78411;BME280;67706;51.074;-1.796;2024-01-25T00:39:51;102494.28;;;6.80;100.00
78411;BME280;67706;51.074;-1.796;2024-01-25T00:42:21;102484.84;;;6.84;100.00
78411;BME280;67706;51.074;-1.796;2024-01-25T00:44:49;102485.44;;;6.87;100.00
78411;BME280;67706;51.074;-1.796;2024-01-25T00:47:17;102485.56;;;6.86;100.00
78411;BME280;67706;51.074;-1.796;2024-01-25T00:49:45;102479.13;;;6.87;100.00
78411;BME280;67706;51.074;-1.796;2024-01-25T00:52:12;102476.19;;;6.99;100.00
78411;BME280;67706;51.074;-1.796;2024-01-25T00:54:39;102466.41;;;6.97;100.00
78411;BME280;67706;51.074;-1.796;2024-01-25T00:57:07;102469.47;;;7.03;100.00
78411;BME280;67706;51.074;-1.796;2024-01-25T00:59:34;102463.13;;;7.03;100.00
78411;BME280;67706;51.074;-1.796;2024-01-25T01:02:03;102464.00;;;7.03;100.00
78411;BME280;67706;51.074;-1.796;2024-01-25T01:04:32;102469.19;;;7.06;100.00
78411;BME280;67706;51.074;-1.796;2024-01-25T01:06:59;102463.56;;;7.08;100.00
78411;BME280;67706;51.074;-1.796;2024-01-25T01:09:26;102460.44;;;7.12;100.00
78411;BME280;67706;51.074;-1.796;2024-01-25T01:11:53;102464.78;;;7.15;100.00
78411;BME280;67706;51.074;-1.796;2024-01-25T01:14:19;102466.63;;;7.14;100.00
78411;BME280;67706;51.074;-1.796;2024-01-25T01:16:46;102458.59;;;7.13;100.00
78411;BME280;67706;51.074;-1.796;2024-01-25T01:19:13;102460.34;;;7.14;100.00
78411;BME280;67706;51.074;-1.796;2024-01-25T01:21:41;102455.84;;;7.13;100.00
78411;BME280;67706;51.074;-1.796;2024-01-25T01:24:09;102442.78;;;7.16;100.00
78411;BME280;67706;51.074;-1.796;2024-01-25T01:26:36;102439.97;;;7.18;100.00
78411;BME280;67706;51.074;-1.796;2024-01-25T01:29:02;102439.41;;;7.24;100.00
78411;BME280;67706;51.074;-1.796;2024-01-25T01:31:29;102448.31;;;7.26;100.00
78411;BME280;67706;51.074;-1.796;2024-01-25T01:33:56;102446.03;;;7.31;100.00
78411;BME280;67706;51.074;-1.796;2024-01-25T01:36:23;102440.56;;;7.31;100.00
78411;BME280;67706;51.074;-1.796;2024-01-25T01:38:51;102442.31;;;7.32;100.00
78411;BME280;67706;51.074;-1.796;2024-01-25T01:41:17;102445.19;;;7.31;100.00
78411;BME280;67706;51.074;-1.796;2024-01-25T01:43:44;102432.25;;;7.33;100.00
78411;BME280;67706;51.074;-1.796;2024-01-25T01:46:14;102425.06;;;7.32;100.00
78411;BME280;67706;51.074;-1.796;2024-01-25T01:48:45;102420.31;;;7.34;100.00
78411;BME280;67706;51.074;-1.796;2024-01-25T01:51:12;102418.91;;;7.39;100.00
78411;BME280;67706;51.074;-1.796;2024-01-25T01:53:39;102425.19;;;7.30;100.00
78411;BME280;67706;51.074;-1.796;2024-01-25T01:56:08;102426.19;;;7.29;100.00
78411;BME280;67706;51.074;-1.796;2024-01-25T01:58:36;102424.19;;;7.31;100.00
78411;BME280;67706;51.074;-1.796;2024-01-25T02:01:04;102419.00;;;7.28;100.00
78411;BME280;67706;51.074;-1.796;2024-01-25T02:03:31;102416.28;;;7.28;100.00
78411;BME280;67706;51.074;-1.796;2024-01-25T02:05:58;102417.56;;;7.24;100.00
78411;BME280;67706;51.074;-1.796;2024-01-25T02:08:28;102415.28;;;7.29;100.00
78411;BME280;67706;51.074;-1.796;2024-01-25T02:10:55;102421.91;;;7.36;100.00
78411;BME280;67706;51.074;-1.796;2024-01-25T02:13:23;102409.00;;;7.38;100.00
78411;BME280;67706;51.074;-1.796;2024-01-25T02:15:49;102414.44;;;7.38;100.00
78411;BME280;67706;51.074;-1.796;2024-01-25T02:18:16;102413.00;;;7.44;100.00
78411;BME280;67706;51.074;-1.796;2024-01-25T02:20:43;102399.97;;;7.47;100.00
78411;BME280;67706;51.074;-1.796;2024-01-25T02:23:10;102394.22;;;7.50;100.00
78411;BME280;67706;51.074;-1.796;2024-01-25T02:25:37;102392.50;;;7.49;100.00
78411;BME280;67706;51.074;-1.796;2024-01-25T02:28:05;102394.81;;;7.54;100.00
78411;BME280;67706;51.074;-1.796;2024-01-25T02:30:31;102394.66;;;7.55;100.00
78411;BME280;67706;51.074;-1.796;2024-01-25T02:32:58;102399.00;;;7.58;100.00
78411;BME280;67706;51.074;-1.796;2024-01-25T02:35:25;102402.56;;;7.58;100.00
78411;BME280;67706;51.074;-1.796;2024-01-25T02:37:52;102406.03;;;7.60;100.00
78411;BME280;67706;51.074;-1.796;2024-01-25T02:40:20;102396.09;;;7.59;100.00
78411;BME280;67706;51.074;-1.796;2024-01-25T02:42:47;102388.50;;;7.53;100.00
78411;BME280;67706;51.074;-1.796;2024-01-25T02:45:13;102381.44;;;7.51;100.00
78411;BME280;67706;51.074;-1.796;2024-01-25T02:47:40;102378.56;;;7.52;100.00
78411;BME280;67706;51.074;-1.796;2024-01-25T02:50:08;102375.09;;;7.50;100.00
78411;BME280;67706;51.074;-1.796;2024-01-25T02:52:34;102369.22;;;7.55;100.00
78411;BME280;67706;51.074;-1.796;2024-01-25T02:55:01;102372.81;;;7.55;100.00
78411;BME280;67706;51.074;-1.796;2024-01-25T02:57:29;102366.34;;;7.56;100.00
78411;BME280;67706;51.074;-1.796;2024-01-25T02:59:56;102365.34;;;7.57;100.00
78411;BME280;67706;51.074;-1.796;2024-01-25T03:02:23;102366.78;;;7.61;100.00
78411;BME280;67706;51.074;-1.796;2024-01-25T03:04:50;102358.88;;;7.58;100.00
78411;BME280;67706;51.074;-1.796;2024-01-25T03:07:16;102347.09;;;7.58;100.00
78411;BME280;67706;51.074;-1.796;2024-01-25T03:09:43;102346.50;;;7.54;100.00
78411;BME280;67706;51.074;-1.796;2024-01-25T03:12:09;102336.31;;;7.56;100.00
78411;BME280;67706;51.074;-1.796;2024-01-25T03:14:37;102335.31;;;7.57;100.00
78411;BME280;67706;51.074;-1.796;2024-01-25T03:17:04;102326.69;;;7.62;100.00
78411;BME280;67706;51.074;-1.796;2024-01-25T03:19:31;102316.50;;;7.64;100.00
78411;BME280;67706;51.074;-1.796;2024-01-25T03:21:57;102314.47;;;7.66;100.00
78411;BME280;67706;51.074;-1.796;2024-01-25T03:24:26;102310.44;;;7.70;100.00
78411;BME280;67706;51.074;-1.796;2024-01-25T03:26:53;102297.66;;;7.70;100.00
78411;BME280;67706;51.074;-1.796;2024-01-25T03:29:19;102298.94;;;7.76;100.00
78411;BME280;67706;51.074;-1.796;2024-01-25T03:31:47;102301.53;;;7.87;100.00
78411;BME280;67706;51.074;-1.796;2024-01-25T03:34:15;102295.94;;;7.88;100.00
78411;BME280;67706;51.074;-1.796;2024-01-25T03:36:41;102299.94;;;7.94;100.00
78411;BME280;67706;51.074;-1.796;2024-01-25T03:39:08;102305.97;;;8.07;100.00
78411;BME280;67706;51.074;-1.796;2024-01-25T03:41:35;102309.56;;;7.98;100.00
78411;BME280;67706;51.074;-1.796;2024-01-25T03:44:02;102302.94;;;8.00;100.00
78411;BME280;67706;51.074;-1.796;2024-01-25T03:46:28;102313.44;;;8.05;100.00
78411;BME280;67706;51.074;-1.796;2024-01-25T03:48:56;102300.94;;;8.02;100.00
78411;BME280;67706;51.074;-1.796;2024-01-25T03:51:23;102300.63;;;8.15;100.00
78411;BME280;67706;51.074;-1.796;2024-01-25T03:53:50;102293.72;;;8.21;100.00
78411;BME280;67706;51.074;-1.796;2024-01-25T03:56:18;102286.84;;;8.26;100.00
78411;BME280;67706;51.074;-1.796;2024-01-25T03:58:44;102285.97;;;8.35;100.00
78411;BME280;67706;51.074;-1.796;2024-01-25T04:01:11;102291.81;;;8.50;100.00
78411;BME280;67706;51.074;-1.796;2024-01-25T04:03:38;102272.34;;;8.53;100.00
78411;BME280;67706;51.074;-1.796;2024-01-25T04:06:06;102280.53;;;8.62;100.00
78411;BME280;67706;51.074;-1.796;2024-01-25T04:08:33;102276.78;;;8.63;100.00
78411;BME280;67706;51.074;-1.796;2024-01-25T04:11:00;102276.31;;;8.68;100.00
78411;BME280;67706;51.074;-1.796;2024-01-25T04:13:26;102259.19;;;8.66;100.00
78411;BME280;67706;51.074;-1.796;2024-01-25T04:15:53;102262.50;;;8.69;100.00
78411;BME280;67706;51.074;-1.796;2024-01-25T04:18:19;102260.47;;;8.71;100.00
78411;BME280;67706;51.074;-1.796;2024-01-25T04:20:46;102258.03;;;8.68;100.00
78411;BME280;67706;51.074;-1.796;2024-01-25T04:23:14;102258.31;;;8.75;100.00
78411;BME280;67706;51.074;-1.796;2024-01-25T04:25:41;102256.13;;;8.78;100.00
78411;BME280;67706;51.074;-1.796;2024-01-25T04:28:07;102256.28;;;8.77;100.00
78411;BME280;67706;51.074;-1.796;2024-01-25T04:30:34;102251.81;;;8.76;100.00
78411;BME280;67706;51.074;-1.796;2024-01-25T04:33:02;102261.31;;;8.72;100.00
78411;BME280;67706;51.074;-1.796;2024-01-25T04:35:28;102259.63;;;8.71;100.00
78411;BME280;67706;51.074;-1.796;2024-01-25T04:37:57;102251.69;;;8.68;100.00
78411;BME280;67706;51.074;-1.796;2024-01-25T04:40:25;102251.97;;;8.74;100.00
78411;BME280;67706;51.074;-1.796;2024-01-25T04:42:51;102248.78;;;8.79;100.00
78411;BME280;67706;51.074;-1.796;2024-01-25T04:45:18;102242.34;;;8.70;100.00
78411;BME280;67706;51.074;-1.796;2024-01-25T04:47:44;102234.22;;;8.78;100.00
78411;BME280;67706;51.074;-1.796;2024-01-25T04:50:11;102235.53;;;8.74;100.00
78411;BME280;67706;51.074;-1.796;2024-01-25T04:52:38;102239.88;;;8.77;100.00
78411;BME280;67706;51.074;-1.796;2024-01-25T04:55:05;102244.47;;;8.76;100.00
78411;BME280;67706;51.074;-1.796;2024-01-25T04:57:33;102242.59;;;8.77;100.00
78411;BME280;67706;51.074;-1.796;2024-01-25T05:00:00;102241.88;;;8.75;100.00
78411;BME280;67706;51.074;-1.796;2024-01-25T05:02:26;102247.03;;;8.78;100.00
78411;BME280;67706;51.074;-1.796;2024-01-25T05:04:53;102243.16;;;8.80;100.00
78411;BME280;67706;51.074;-1.796;2024-01-25T05:07:21;102220.25;;;8.82;100.00
78411;BME280;67706;51.074;-1.796;2024-01-25T05:09:47;102214.91;;;8.80;100.00
78411;BME280;67706;51.074;-1.796;2024-01-25T05:12:14;102214.63;;;8.83;100.00
78411;BME280;67706;51.074;-1.796;2024-01-25T05:14:42;102209.31;;;8.82;100.00
78411;BME280;67706;51.074;-1.796;2024-01-25T05:17:08;102210.16;;;8.82;100.00
78411;BME280;67706;51.074;-1.796;2024-01-25T05:19:35;102202.66;;;8.84;100.00
78411;BME280;67706;51.074;-1.796;2024-01-25T05:22:02;102201.66;;;8.85;100.00
78411;BME280;67706;51.074;-1.796;2024-01-25T05:24:31;102210.84;;;8.84;100.00
78411;BME280;67706;51.074;-1.796;2024-01-25T05:26:58;102199.91;;;8.84;100.00
78411;BME280;67706;51.074;-1.796;2024-01-25T05:29:25;102200.63;;;8.86;100.00
78411;BME280;67706;51.074;-1.796;2024-01-25T05:31:53;102203.94;;;8.90;100.00
78411;BME280;67706;51.074;-1.796;2024-01-25T05:34:19;102192.13;;;8.89;100.00
78411;BME280;67706;51.074;-1.796;2024-01-25T05:36:46;102194.06;;;8.97;100.00
78411;BME280;67706;51.074;-1.796;2024-01-25T05:39:13;102196.50;;;9.00;100.00
78411;BME280;67706;51.074;-1.796;2024-01-25T05:41:40;102195.97;;;8.96;100.00
78411;BME280;67706;51.074;-1.796;2024-01-25T05:44:06;102196.34;;;9.01;100.00
78411;BME280;67706;51.074;-1.796;2024-01-25T05:46:33;102193.22;;;8.96;100.00
78411;BME280;67706;51.074;-1.796;2024-01-25T05:49:01;102192.03;;;8.99;100.00
78411;BME280;67706;51.074;-1.796;2024-01-25T05:51:28;102184.69;;;8.99;100.00
78411;BME280;67706;51.074;-1.796;2024-01-25T05:53:54;102189.16;;;9.00;100.00
78411;BME280;67706;51.074;-1.796;2024-01-25T05:56:21;102197.66;;;8.97;100.00
78411;BME280;67706;51.074;-1.796;2024-01-25T05:58:48;102193.22;;;8.96;100.00
78411;BME280;67706;51.074;-1.796;2024-01-25T06:01:15;102199.94;;;9.02;100.00
78411;BME280;67706;51.074;-1.796;2024-01-25T06:03:41;102193.16;;;9.06;100.00
78411;BME280;67706;51.074;-1.796;2024-01-25T06:06:09;102195.19;;;9.04;100.00
78411;BME280;67706;51.074;-1.796;2024-01-25T06:08:36;102191.66;;;9.11;100.00
78411;BME280;67706;51.074;-1.796;2024-01-25T06:11:03;102194.38;;;9.11;100.00
78411;BME280;67706;51.074;-1.796;2024-01-25T06:13:31;102176.56;;;9.07;100.00
78411;BME280;67706;51.074;-1.796;2024-01-25T06:15:57;102164.78;;;9.07;100.00
78411;BME280;67706;51.074;-1.796;2024-01-25T06:18:25;102154.19;;;9.12;100.00
78411;BME280;67706;51.074;-1.796;2024-01-25T06:20:51;102160.06;;;9.17;100.00
78411;BME280;67706;51.074;-1.796;2024-01-25T06:23:19;102168.28;;;9.17;100.00
78411;BME280;67706;51.074;-1.796;2024-01-25T06:25:49;102163.34;;;9.20;100.00
78411;BME280;67706;51.074;-1.796;2024-01-25T06:28:15;102151.00;;;9.16;100.00
78411;BME280;67706;51.074;-1.796;2024-01-25T06:30:42;102151.28;;;9.13;100.00
78411;BME280;67706;51.074;-1.796;2024-01-25T06:33:08;102148.56;;;9.13;100.00
78411;BME280;67706;51.074;-1.796;2024-01-25T06:35:35;102149.28;;;9.15;100.00
78411;BME280;67706;51.074;-1.796;2024-01-25T06:38:02;102154.03;;;9.31;100.00
78411;BME280;67706;51.074;-1.796;2024-01-25T06:40:30;102149.44;;;9.31;100.00
78411;BME280;67706;51.074;-1.796;2024-01-25T06:42:56;102140.34;;;9.31;100.00
78411;BME280;67706;51.074;-1.796;2024-01-25T06:45:23;102143.09;;;9.31;100.00
78411;BME280;67706;51.074;-1.796;2024-01-25T06:47:49;102140.88;;;9.34;100.00
78411;BME280;67706;51.074;-1.796;2024-01-25T06:50:16;102137.31;;;9.34;100.00
78411;BME280;67706;51.074;-1.796;2024-01-25T06:52:43;102145.47;;;9.51;100.00
78411;BME280;67706;51.074;-1.796;2024-01-25T06:55:09;102136.03;;;9.46;100.00
78411;BME280;67706;51.074;-1.796;2024-01-25T06:57:38;102145.13;;;9.46;100.00
78411;BME280;67706;51.074;-1.796;2024-01-25T07:00:06;102135.16;;;9.45;100.00
78411;BME280;67706;51.074;-1.796;2024-01-25T07:02:33;102135.00;;;9.47;100.00
78411;BME280;67706;51.074;-1.796;2024-01-25T07:05:00;102121.16;;;9.48;100.00
78411;BME280;67706;51.074;-1.796;2024-01-25T07:07:26;102125.06;;;9.46;100.00
78411;BME280;67706;51.074;-1.796;2024-01-25T07:09:53;102129.69;;;9.45;100.00
78411;BME280;67706;51.074;-1.796;2024-01-25T07:12:20;102126.25;;;9.43;100.00
78411;BME280;67706;51.074;-1.796;2024-01-25T07:14:48;102126.06;;;9.45;100.00
78411;BME280;67706;51.074;-1.796;2024-01-25T07:17:14;102124.22;;;9.45;100.00
78411;BME280;67706;51.074;-1.796;2024-01-25T07:19:41;102132.81;;;9.50;100.00
78411;BME280;67706;51.074;-1.796;2024-01-25T07:22:08;102139.13;;;9.51;100.00
78411;BME280;67706;51.074;-1.796;2024-01-25T07:24:36;102132.47;;;9.53;100.00
78411;BME280;67706;51.074;-1.796;2024-01-25T07:27:03;102140.69;;;9.53;100.00
78411;BME280;67706;51.074;-1.796;2024-01-25T07:29:30;102135.63;;;9.58;100.00
78411;BME280;67706;51.074;-1.796;2024-01-25T07:31:58;102128.25;;;9.59;100.00
78411;BME280;67706;51.074;-1.796;2024-01-25T07:34:25;102120.88;;;9.59;100.00
78411;BME280;67706;51.074;-1.796;2024-01-25T07:36:51;102116.78;;;9.63;100.00
78411;BME280;67706;51.074;-1.796;2024-01-25T07:39:18;102104.31;;;9.61;100.00
78411;BME280;67706;51.074;-1.796;2024-01-25T07:41:45;102120.22;;;9.66;100.00
78411;BME280;67706;51.074;-1.796;2024-01-25T07:44:12;102121.03;;;9.58;100.00
78411;BME280;67706;51.074;-1.796;2024-01-25T07:46:38;102119.19;;;9.58;100.00
78411;BME280;67706;51.074;-1.796;2024-01-25T07:49:07;102124.75;;;9.75;100.00
78411;BME280;67706;51.074;-1.796;2024-01-25T07:51:33;102122.53;;;9.78;100.00
78411;BME280;67706;51.074;-1.796;2024-01-25T07:54:00;102120.88;;;9.85;100.00
78411;BME280;67706;51.074;-1.796;2024-01-25T07:56:27;102117.97;;;9.87;100.00
78411;BME280;67706;51.074;-1.796;2024-01-25T07:58:55;102120.41;;;9.90;100.00
78411;BME280;67706;51.074;-1.796;2024-01-25T08:01:22;102120.13;;;10.01;100.00
78411;BME280;67706;51.074;-1.796;2024-01-25T08:03:48;102114.44;;;9.94;100.00
78411;BME280;67706;51.074;-1.796;2024-01-25T08:06:16;102119.97;;;10.02;100.00
78411;BME280;67706;51.074;-1.796;2024-01-25T08:08:43;102124.63;;;10.10;100.00
78411;BME280;67706;51.074;-1.796;2024-01-25T08:11:10;102118.59;;;10.06;100.00
78411;BME280;67706;51.074;-1.796;2024-01-25T08:13:36;102118.44;;;10.08;100.00
78411;BME280;67706;51.074;-1.796;2024-01-25T08:16:03;102123.47;;;10.12;100.00
78411;BME280;67706;51.074;-1.796;2024-01-25T08:18:30;102114.56;;;10.10;100.00
78411;BME280;67706;51.074;-1.796;2024-01-25T08:20:57;102118.16;;;10.11;100.00
78411;BME280;67706;51.074;-1.796;2024-01-25T08:23:25;102120.41;;;10.15;100.00
78411;BME280;67706;51.074;-1.796;2024-01-25T08:25:52;102114.69;;;10.34;100.00
78411;BME280;67706;51.074;-1.796;2024-01-25T08:28:18;102109.31;;;10.25;100.00
78411;BME280;67706;51.074;-1.796;2024-01-25T08:30:47;102113.28;;;10.30;100.00
78411;BME280;67706;51.074;-1.796;2024-01-25T08:33:13;102108.44;;;10.24;100.00
78411;BME280;67706;51.074;-1.796;2024-01-25T08:35:40;102109.31;;;10.25;100.00
78411;BME280;67706;51.074;-1.796;2024-01-25T08:38:07;102102.81;;;10.26;100.00
78411;BME280;67706;51.074;-1.796;2024-01-25T08:40:35;102114.63;;;10.26;100.00
78411;BME280;67706;51.074;-1.796;2024-01-25T08:43:02;102113.13;;;10.32;100.00
78411;BME280;67706;51.074;-1.796;2024-01-25T08:45:30;102108.81;;;10.29;100.00
78411;BME280;67706;51.074;-1.796;2024-01-25T08:47:56;102114.47;;;10.28;100.00
78411;BME280;67706;51.074;-1.796;2024-01-25T08:50:23;102114.31;;;10.37;100.00
78411;BME280;67706;51.074;-1.796;2024-01-25T08:52:49;102121.69;;;10.37;100.00
78411;BME280;67706;51.074;-1.796;2024-01-25T08:55:16;102124.44;;;10.37;100.00
78411;BME280;67706;51.074;-1.796;2024-01-25T08:57:45;102128.56;;;10.41;100.00
78411;BME280;67706;51.074;-1.796;2024-01-25T09:00:12;102106.63;;;10.41;100.00
78411;BME280;67706;51.074;-1.796;2024-01-25T09:02:39;102095.13;;;10.37;100.00
78411;BME280;67706;51.074;-1.796;2024-01-25T09:05:07;102105.97;;;10.47;100.00
78411;BME280;67706;51.074;-1.796;2024-01-25T09:07:35;102108.53;;;10.49;100.00
78411;BME280;67706;51.074;-1.796;2024-01-25T09:10:02;102110.41;;;10.48;100.00
78411;BME280;67706;51.074;-1.796;2024-01-25T09:12:30;102105.13;;;10.47;100.00
78411;BME280;67706;51.074;-1.796;2024-01-25T09:14:57;102108.75;;;10.55;100.00
78411;BME280;67706;51.074;-1.796;2024-01-25T09:17:24;102104.75;;;10.50;100.00
78411;BME280;67706;51.074;-1.796;2024-01-25T09:19:51;102109.06;;;10.52;100.00
78411;BME280;67706;51.074;-1.796;2024-01-25T09:22:18;102103.56;;;10.52;100.00
78411;BME280;67706;51.074;-1.796;2024-01-25T09:24:45;102110.13;;;10.59;100.00
78411;BME280;67706;51.074;-1.796;2024-01-25T09:27:12;102110.31;;;10.66;100.00
78411;BME280;67706;51.074;-1.796;2024-01-25T09:29:39;102103.28;;;10.63;100.00
78411;BME280;67706;51.074;-1.796;2024-01-25T09:32:07;102105.34;;;10.69;100.00
78411;BME280;67706;51.074;-1.796;2024-01-25T09:34:34;102107.06;;;10.70;100.00
78411;BME280;67706;51.074;-1.796;2024-01-25T09:37:01;102106.72;;;10.73;100.00
78411;BME280;67706;51.074;-1.796;2024-01-25T09:39:28;102103.31;;;10.79;100.00
78411;BME280;67706;51.074;-1.796;2024-01-25T09:41:55;102097.31;;;10.84;100.00
78411;BME280;67706;51.074;-1.796;2024-01-25T09:44:22;102096.13;;;10.78;100.00
78411;BME280;67706;51.074;-1.796;2024-01-25T09:46:49;102106.22;;;10.86;100.00
78411;BME280;67706;51.074;-1.796;2024-01-25T09:49:17;102097.50;;;10.90;100.00
78411;BME280;67706;51.074;-1.796;2024-01-25T09:51:44;102097.13;;;10.93;100.00
78411;BME280;67706;51.074;-1.796;2024-01-25T09:54:13;102101.63;;;11.02;100.00
78411;BME280;67706;51.074;-1.796;2024-01-25T09:56:41;102100.59;;;11.03;100.00
78411;BME280;67706;51.074;-1.796;2024-01-25T09:59:08;102099.38;;;11.06;100.00
78411;BME280;67706;51.074;-1.796;2024-01-25T10:01:35;102094.75;;;11.14;100.00
78411;BME280;67706;51.074;-1.796;2024-01-25T10:04:06;102097.34;;;11.16;100.00
78411;BME280;67706;51.074;-1.796;2024-01-25T10:06:34;102089.44;;;11.13;100.00
78411;BME280;67706;51.074;-1.796;2024-01-25T10:09:01;102093.06;;;11.13;100.00
78411;BME280;67706;51.074;-1.796;2024-01-25T10:11:28;102085.31;;;11.25;100.00
78411;BME280;67706;51.074;-1.796;2024-01-25T10:14:01;102074.84;;;11.20;100.00
78411;BME280;67706;51.074;-1.796;2024-01-25T10:16:29;102086.53;;;11.23;100.00
78411;BME280;67706;51.074;-1.796;2024-01-25T10:18:56;102078.44;;;11.29;100.00
78411;BME280;67706;51.074;-1.796;2024-01-25T10:21:23;102076.91;;;11.35;100.00
78411;BME280;67706;51.074;-1.796;2024-01-25T10:23:51;102077.78;;;11.35;100.00
78411;BME280;67706;51.074;-1.796;2024-01-25T10:26:20;102078.63;;;11.36;100.00
78411;BME280;67706;51.074;-1.796;2024-01-25T10:28:51;102076.06;;;11.34;100.00
78411;BME280;67706;51.074;-1.796;2024-01-25T10:31:18;102079.66;;;11.43;100.00
78411;BME280;67706;51.074;-1.796;2024-01-25T10:33:45;102064.38;;;11.32;100.00
78411;BME280;67706;51.074;-1.796;2024-01-25T10:36:13;102078.28;;;11.47;100.00
78411;BME280;67706;51.074;-1.796;2024-01-25T10:38:41;102071.75;;;11.40;100.00
78411;BME280;67706;51.074;-1.796;2024-01-25T10:41:11;102066.94;;;11.50;100.00
78411;BME280;67706;51.074;-1.796;2024-01-25T10:43:40;102066.59;;;11.53;100.00
78411;BME280;67706;51.074;-1.796;2024-01-25T10:46:07;102074.81;;;11.53;100.00
78411;BME280;67706;51.074;-1.796;2024-01-25T10:48:35;102065.00;;;11.58;100.00
78411;BME280;67706;51.074;-1.796;2024-01-25T10:51:02;102047.31;;;11.61;100.00
78411;BME280;67706;51.074;-1.796;2024-01-25T10:53:30;102044.91;;;11.66;100.00
78411;BME280;67706;51.074;-1.796;2024-01-25T10:55:57;102047.53;;;11.67;100.00
78411;BME280;67706;51.074;-1.796;2024-01-25T10:58:30;102039.09;;;11.69;100.00
78411;BME280;67706;51.074;-1.796;2024-01-25T11:00:57;102040.63;;;11.63;100.00
78411;BME280;67706;51.074;-1.796;2024-01-25T11:03:25;102039.09;;;11.69;100.00
78411;BME280;67706;51.074;-1.796;2024-01-25T11:05:54;102044.91;;;11.66;100.00
78411;BME280;67706;51.074;-1.796;2024-01-25T11:08:21;102038.56;;;11.65;100.00
78411;BME280;67706;51.074;-1.796;2024-01-25T11:10:51;102045.13;;;11.72;100.00
78411;BME280;67706;51.074;-1.796;2024-01-25T11:13:25;102047.69;;;11.74;100.00
78411;BME280;67706;51.074;-1.796;2024-01-25T11:15:52;102045.94;;;11.81;100.00
78411;BME280;67706;51.074;-1.796;2024-01-25T11:18:19;102050.06;;;11.85;100.00
78411;BME280;67706;51.074;-1.796;2024-01-25T11:20:47;102029.75;;;11.86;100.00
78411;BME280;67706;51.074;-1.796;2024-01-25T11:23:15;102036.78;;;11.96;100.00
78411;BME280;67706;51.074;-1.796;2024-01-25T11:25:45;102035.91;;;11.96;100.00
78411;BME280;67706;51.074;-1.796;2024-01-25T11:28:13;102023.69;;;11.98;100.00
78411;BME280;67706;51.074;-1.796;2024-01-25T11:30:43;102026.63;;;11.97;100.00
78411;BME280;67706;51.074;-1.796;2024-01-25T11:33:09;102019.88;;;12.08;100.00
78411;BME280;67706;51.074;-1.796;2024-01-25T11:35:37;102015.78;;;12.04;100.00
78411;BME280;67706;51.074;-1.796;2024-01-25T11:38:03;102014.72;;;12.13;100.00
78411;BME280;67706;51.074;-1.796;2024-01-25T11:40:30;102004.19;;;12.16;100.00
78411;BME280;67706;51.074;-1.796;2024-01-25T11:42:57;102000.78;;;12.14;100.00
78411;BME280;67706;51.074;-1.796;2024-01-25T11:45:24;101995.75;;;12.18;100.00
78411;BME280;67706;51.074;-1.796;2024-01-25T11:47:53;102005.56;;;12.20;100.00
78411;BME280;67706;51.074;-1.796;2024-01-25T11:50:19;102005.03;;;12.25;100.00
78411;BME280;67706;51.074;-1.796;2024-01-25T11:52:48;102005.88;;;12.25;100.00
78411;BME280;67706;51.074;-1.796;2024-01-25T11:55:15;102011.69;;;12.30;100.00
78411;BME280;67706;51.074;-1.796;2024-01-25T11:57:42;102011.34;;;12.33;100.00
78411;BME280;67706;51.074;-1.796;2024-01-25T12:00:10;102000.00;;;12.28;100.00
78411;BME280;67706;51.074;-1.796;2024-01-25T12:02:39;101992.13;;;12.25;100.00
78411;BME280;67706;51.074;-1.796;2024-01-25T12:05:10;101991.34;;;12.39;100.00
78411;BME280;67706;51.074;-1.796;2024-01-25T12:07:39;101992.94;;;12.56;100.00
78411;BME280;67706;51.074;-1.796;2024-01-25T12:10:07;101977.47;;;12.55;100.00
78411;BME280;67706;51.074;-1.796;2024-01-25T12:12:37;101977.34;;;12.49;100.00
78411;BME280;67706;51.074;-1.796;2024-01-25T12:15:05;101961.69;;;12.49;100.00
78411;BME280;67706;51.074;-1.796;2024-01-25T12:17:33;101969.63;;;12.44;100.00
78411;BME280;67706;51.074;-1.796;2024-01-25T12:20:02;101976.00;;;12.45;100.00
78411;BME280;67706;51.074;-1.796;2024-01-25T12:22:30;101973.91;;;12.47;100.00
78411;BME280;67706;51.074;-1.796;2024-01-25T12:24:57;101977.72;;;12.46;100.00
78411;BME280;67706;51.074;-1.796;2024-01-25T12:27:25;101979.53;;;12.53;100.00
78411;BME280;67706;51.074;-1.796;2024-01-25T12:29:53;101971.22;;;12.61;100.00
78411;BME280;67706;51.074;-1.796;2024-01-25T12:32:20;101984.69;;;12.56;100.00
78411;BME280;67706;51.074;-1.796;2024-01-25T12:34:54;101976.44;;;12.56;100.00